Time;durP1;ratioP1;P1;durP2;ratioP2;P2;SDS_P1;SDS_P2;PMS_P1;PMS_P2;Temp;Humidity;BMP_temperature;BMP_pressure;BME280_temperature;BME280_humidity;BME280_pressure;Samples;Min_cycle;Max_cycle;Signal;HPM_P1;HPM_P2
2022/08/12 00:44:50;;;;;;;7.93;4.40;;;;;;;21.49;nan;-24414.25;4950947;29;20189;-60
2022/08/12 00:47:17;;;;;;;7.00;4.63;;;;;;;21.00;nan;-24400.94;4952039;29;20194;-59
2022/08/12 00:49:45;;;;;;;10.40;5.50;;;;;;;20.98;nan;-24400.38;4951678;29;20190;-59
2022/08/12 00:52:12;;;;;;;7.43;5.00;;;;;;;21.23;nan;-24407.19;4952556;29;20225;-59
2022/08/12 00:54:44;;;;;;;8.32;5.07;;;;;;;21.28;nan;-24408.44;4952249;29;20494;-61
2022/08/12 00:57:09;;;;;;;8.00;4.70;;;;;;;21.47;nan;-24413.84;4949079;29;20196;-61
2022/08/12 00:59:36;;;;;;;7.63;4.82;;;;;;;21.22;nan;-24406.78;4935617;29;20558;-60
2022/08/12 01:02:04;;;;;;;6.90;4.55;;;;;;;21.17;nan;-24405.53;4952366;29;20307;-61
2022/08/12 01:12:46;;;;;;;8.77;5.38;;;;;;;20.84;nan;-24396.50;4952181;29;20532;-60
2022/08/12 01:15:12;;;;;;;6.13;4.10;;;;;;;21.09;nan;-24403.31;4952344;29;20232;-59
2022/08/12 01:17:43;;;;;;;9.57;5.15;;;;;;;20.98;nan;-24400.38;4945857;29;20213;-60
2022/08/12 01:20:16;;;;;;;8.43;5.57;;;;;;;20.84;nan;-24396.38;4952798;29;20236;-61
2022/08/12 01:23:19;;;;;;;9.10;5.68;;;;;;;21.08;nan;-24403.03;4951370;29;20170;-61
2022/08/12 01:25:48;;;;;;;8.32;5.15;;;;;;;20.69;nan;-24392.47;4933677;29;20201;-62
2022/08/12 01:28:16;;;;;;;11.43;5.75;;;;;;;20.76;nan;-24394.16;4951920;29;20178;-61
2022/08/12 01:30:43;;;;;;;13.45;6.00;;;;;;;20.40;nan;-24384.28;4951479;29;20193;-60
2022/08/12 01:33:17;;;;;;;9.23;5.00;;;;;;;20.58;nan;-24389.44;4949421;29;20278;-61
2022/08/12 01:35:50;;;;;;;9.07;4.97;;;;;;;20.65;nan;-24391.38;4946680;29;20280;-59
2022/08/12 01:38:21;;;;;;;8.50;5.03;;;;;;;20.52;nan;-24387.63;4946308;29;20174;-60
2022/08/12 01:40:50;;;;;;;10.05;6.10;;;;;;;20.11;nan;-24376.38;4946249;29;20223;-60
2022/08/12 01:43:23;;;;;;;12.40;5.32;;;;;;;20.54;nan;-24388.19;4946418;29;20202;-59
2022/08/12 01:46:21;;;;;;;12.18;6.85;;;;;;;20.41;nan;-24384.56;4947237;29;20256;-59
2022/08/12 01:49:28;;;;;;;10.23;6.25;;;;;;;20.26;nan;-24380.53;4946774;29;20186;-61
2022/08/12 01:52:03;;;;;;;9.90;6.07;;;;;;;20.16;nan;-24377.91;4946556;29;20629;-60
2022/08/12 01:54:37;;;;;;;11.02;6.13;;;;;;;20.00;nan;-24373.31;4945909;29;20186;-60
2022/08/12 01:57:09;;;;;;;12.60;5.75;;;;;;;20.29;nan;-24381.38;4946549;29;20177;-61
2022/08/12 01:59:45;;;;;;;9.20;5.55;;;;;;;20.29;nan;-24381.50;4947413;29;20197;-62
2022/08/12 02:02:15;;;;;;;11.05;6.22;;;;;;;20.30;nan;-24381.66;4946312;29;20641;-61
2022/08/12 02:11:17;;;;;;;9.77;5.70;;;;;;;19.92;nan;-24371.09;4946962;29;20189;-62
2022/08/12 02:14:24;;;;;;;11.07;5.38;;;;;;;20.22;nan;-24379.56;4921649;29;20273;-63
2022/08/12 02:16:52;;;;;;;11.15;6.28;;;;;;;20.08;nan;-24375.69;4948771;28;20209;-62
2022/08/12 02:19:53;;;;;;;11.23;6.07;;;;;;;20.03;nan;-24374.16;4952742;29;20653;-62
2022/08/12 02:22:29;;;;;;;10.13;5.68;;;;;;;19.77;nan;-24367.06;4953357;29;20200;-63
2022/08/12 02:25:19;;;;;;;10.85;5.93;;;;;;;19.99;nan;-24373.19;4954476;29;20186;-63
2022/08/12 02:27:47;;;;;;;9.80;5.90;;;;;;;19.78;nan;-24367.34;4926326;29;20367;-63
2022/08/12 02:30:18;;;;;;;9.48;5.93;;;;;;;20.06;nan;-24375.13;4955267;29;20567;-61
2022/08/12 02:32:46;;;;;;;11.93;6.82;;;;;;;19.98;nan;-24372.91;4954115;29;20214;-62
2022/08/12 02:35:18;;;;;;;11.80;6.47;;;;;;;19.66;nan;-24364.00;4954271;29;20197;-62
2022/08/12 02:37:46;;;;;;;10.02;6.13;;;;;;;19.81;nan;-24368.31;4954299;29;20216;-62
2022/08/12 02:40:16;;;;;;;10.07;6.03;;;;;;;19.69;nan;-24364.84;4954033;29;20671;-61
2022/08/12 02:42:56;;;;;;;9.60;5.78;;;;;;;20.03;nan;-24374.28;4952795;29;20641;-62
2022/08/12 02:45:34;;;;;;;10.55;5.53;;;;;;;19.72;nan;-24365.81;4950505;29;20185;-62
2022/08/12 02:48:07;;;;;;;11.60;6.57;;;;;;;20.09;nan;-24375.97;4948602;29;20193;-63
2022/08/12 02:50:43;;;;;;;9.20;5.75;;;;;;;20.02;nan;-24373.88;4948943;29;20193;-61
2022/08/12 02:53:10;;;;;;;10.50;5.57;;;;;;;20.00;nan;-24373.47;4930470;29;20704;-63
2022/08/12 02:55:36;;;;;;;9.70;5.47;;;;;;;19.65;nan;-24363.88;4948408;29;20240;-61
2022/08/12 02:58:06;;;;;;;10.73;6.05;;;;;;;19.64;nan;-24363.44;4947915;29;20194;-60
2022/08/12 03:00:32;;;;;;;14.07;6.68;;;;;;;19.64;nan;-24363.44;4949430;29;20244;-61
2022/08/12 03:03:03;;;;;;;10.65;5.80;;;;;;;19.78;nan;-24367.47;4948387;29;20186;-60
2022/08/12 03:05:32;;;;;;;7.25;4.72;;;;;;;19.69;nan;-24364.97;4946020;29;20563;-61
2022/08/12 03:08:03;;;;;;;9.35;4.93;;;;;;;19.70;nan;-24365.13;4948254;29;20181;-61
2022/08/12 03:10:31;;;;;;;7.80;4.82;;;;;;;19.48;nan;-24359.13;4949526;29;20182;-60
2022/08/12 03:12:58;;;;;;;9.90;5.13;;;;;;;19.64;nan;-24363.44;4949095;29;20194;-61
2022/08/12 03:15:24;;;;;;;9.20;5.07;;;;;;;19.79;nan;-24367.75;4947963;29;20272;-61
2022/08/12 03:17:59;;;;;;;7.10;4.72;;;;;;;17.37;nan;-24301.03;4949318;29;20529;-59
2022/08/12 03:20:25;;;;;;;7.25;4.63;;;;;;;19.50;nan;-24359.56;4946940;29;20185;-60
2022/08/12 03:22:51;;;;;;;9.20;4.72;;;;;;;19.83;nan;-24368.88;4948239;29;20182;-61
2022/08/12 03:25:26;;;;;;;8.65;4.55;;;;;;;19.79;nan;-24367.63;4948457;29;21158;-60
2022/08/12 03:27:55;;;;;;;7.65;4.75;;;;;;;19.93;nan;-24371.38;4948422;28;20170;-60
2022/08/12 03:30:24;;;;;;;8.35;5.07;;;;;;;19.97;nan;-24372.63;4947824;29;22006;-61
2022/08/12 03:32:51;;;;;;;8.10;4.63;;;;;;;19.96;nan;-24372.34;4948216;29;20213;-59
2022/08/12 03:35:24;;;;;;;9.07;5.10;;;;;;;20.27;nan;-24380.97;4948854;29;20185;-59
2022/08/12 03:37:50;;;;;;;9.40;5.15;;;;;;;20.36;nan;-24383.31;4948358;29;20325;-61
2022/08/12 03:41:33;;;;;;;8.55;4.78;;;;;;;20.73;nan;-24393.44;4948243;29;20189;-60
2022/08/12 04:02:16;;;;;;;5.95;3.75;;;;;;;25.82;nan;-24532.44;4948090;29;20577;-61
2022/08/12 04:04:44;;;;;;;5.63;3.90;;;;;;;26.25;nan;-24544.25;4948239;29;20186;-61
2022/08/12 04:07:11;;;;;;;6.10;4.10;;;;;;;26.89;nan;-24561.56;4947120;29;20209;-60
2022/08/12 04:09:39;;;;;;;5.60;3.80;;;;;;;27.47;nan;-24577.31;4948951;29;20189;-60
2022/08/12 04:14:50;;;;;;;6.43;3.58;;;;;;;27.42;nan;-24575.81;4947141;29;20236;-60
2022/08/12 04:17:17;;;;;;;5.95;3.88;;;;;;;28.28;nan;-24599.09;4945754;29;20272;-64
2022/08/12 04:19:46;;;;;;;5.65;3.88;;;;;;;28.51;nan;-24605.38;4948139;29;20317;-62
2022/08/12 04:22:12;;;;;;;5.93;3.83;;;;;;;28.78;nan;-24612.78;4945434;29;20270;-64
2022/08/12 04:24:39;;;;;;;7.38;4.45;;;;;;;28.14;nan;-24595.25;4946696;29;20669;-62
2022/08/12 04:27:08;;;;;;;7.25;4.10;;;;;;;26.94;nan;-24562.91;4947690;29;20185;-62
2022/08/12 04:29:34;;;;;;;6.03;4.13;;;;;;;25.64;nan;-24527.63;4946736;29;20704;-61
2022/08/12 04:31:59;;;;;;;7.82;4.90;;;;;;;24.92;nan;-24507.94;4946412;29;20309;-62
2022/08/12 04:34:25;;;;;;;8.07;5.07;;;;;;;24.50;nan;-24496.63;4951098;29;20182;-60
2022/08/12 04:36:52;;;;;;;7.28;4.68;;;;;;;24.20;nan;-24488.38;4952476;29;20232;-61
2022/08/12 04:39:20;;;;;;;9.30;5.07;;;;;;;25.19;nan;-24515.38;4951932;28;20273;-61
2022/08/12 04:41:45;;;;;;;6.93;4.80;;;;;;;25.84;nan;-24532.97;4952745;29;20412;-62
2022/08/12 04:44:10;;;;;;;8.02;5.05;;;;;;;25.12;nan;-24513.31;4951846;29;20273;-61
2022/08/12 04:46:36;;;;;;;8.13;5.25;;;;;;;24.50;nan;-24496.50;4950700;28;20174;-60
2022/08/12 04:49:04;;;;;;;9.77;5.97;;;;;;;23.90;nan;-24480.09;4953750;29;20182;-60
2022/08/12 04:51:29;;;;;;;10.32;5.65;;;;;;;23.78;nan;-24477.03;4951109;29;20194;-60
2022/08/12 04:53:55;;;;;;;7.32;4.95;;;;;;;23.51;nan;-24469.59;4952405;29;20272;-60
2022/08/12 04:56:21;;;;;;;9.30;5.25;;;;;;;23.31;nan;-24464.06;4951180;29;20191;-60
2022/08/12 04:58:46;;;;;;;7.93;5.18;;;;;;;23.20;nan;-24461.16;4952376;29;20252;-60
2022/08/12 05:01:12;;;;;;;10.27;5.65;;;;;;;22.92;nan;-24453.28;4953767;29;20193;-59
2022/08/12 05:03:38;;;;;;;8.30;4.95;;;;;;;23.41;nan;-24466.69;4951357;29;20174;-62
2022/08/12 05:06:05;;;;;;;7.45;4.82;;;;;;;22.99;nan;-24455.38;4952534;29;20193;-61
2022/08/12 05:08:32;;;;;;;7.60;4.75;;;;;;;22.91;nan;-24453.16;4952087;29;20269;-61
2022/08/12 05:10:57;;;;;;;10.77;6.25;;;;;;;22.91;nan;-24453.16;4951644;29;20185;-61
2022/08/12 05:13:44;;;;;;;8.88;5.07;;;;;;;23.41;nan;-24466.81;4951248;29;20213;-62
2022/08/12 05:16:09;;;;;;;9.18;6.00;;;;;;;23.52;nan;-24469.72;4951170;29;20228;-62
2022/08/12 05:18:38;;;;;;;8.70;5.22;;;;;;;23.66;nan;-24473.75;4951517;29;20174;-61
2022/08/12 05:21:06;;;;;;;9.65;5.80;;;;;;;23.37;nan;-24465.72;4952396;29;20178;-61
2022/08/12 05:23:32;;;;;;;8.77;6.13;;;;;;;23.46;nan;-24468.22;4952484;29;20186;-62
2022/08/12 05:25:59;;;;;;;15.07;8.63;;;;;;;23.56;nan;-24470.97;4951707;29;20197;-61
2022/08/12 05:28:27;;;;;;;12.63;7.78;;;;;;;23.40;nan;-24466.41;4951824;29;20190;-61
2022/08/12 05:30:53;;;;;;;12.52;7.38;;;;;;;23.67;nan;-24473.88;4952056;29;20209;-61
2022/08/12 05:33:19;;;;;;;12.07;6.95;;;;;;;23.61;nan;-24472.34;4951780;29;20209;-60
2022/08/12 05:35:48;;;;;;;13.35;6.93;;;;;;;23.71;nan;-24475.13;4953077;29;20178;-60
2022/08/12 05:41:04;;;;;;;11.30;6.95;;;;;;;24.06;nan;-24484.63;4952877;29;20249;-61
2022/08/12 05:43:32;;;;;;;12.23;6.55;;;;;;;24.59;nan;-24498.97;4952169;29;20276;-62
2022/08/12 05:45:57;;;;;;;9.85;6.00;;;;;;;24.41;nan;-24494.16;4953392;29;20261;-61
2022/08/12 05:48:23;;;;;;;9.73;5.93;;;;;;;24.49;nan;-24496.34;4953348;28;20634;-62
2022/08/12 05:50:49;;;;;;;10.40;6.45;;;;;;;24.64;nan;-24500.34;4951333;29;20236;-62
2022/08/12 05:53:15;;;;;;;8.60;5.65;;;;;;;24.43;nan;-24494.69;4952554;29;20198;-61
2022/08/12 05:55:40;;;;;;;8.60;5.07;;;;;;;24.37;nan;-24492.91;4951406;29;20178;-61
2022/08/12 05:58:09;;;;;;;11.68;5.13;;;;;;;24.37;nan;-24493.03;4948544;29;20656;-60
2022/08/12 06:00:35;;;;;;;8.52;5.07;;;;;;;24.70;nan;-24501.88;4952789;29;20630;-62
2022/08/12 06:03:02;;;;;;;9.10;5.40;;;;;;;25.10;nan;-24512.75;4952850;29;20268;-61
2022/08/12 06:05:35;;;;;;;8.57;5.65;;;;;;;24.81;nan;-24504.91;4953440;29;20264;-62
2022/08/12 06:08:04;;;;;;;10.63;6.35;;;;;;;25.11;nan;-24513.03;4953017;29;20197;-61
2022/08/12 06:10:31;;;;;;;9.48;5.55;;;;;;;25.40;nan;-24521.00;4952767;29;20189;-63
2022/08/12 06:12:57;;;;;;;9.88;5.97;;;;;;;25.60;nan;-24526.38;4951797;29;20194;-63
2022/08/12 06:15:23;;;;;;;9.80;5.95;;;;;;;25.50;nan;-24523.91;4952027;29;20233;-62
2022/08/12 06:17:49;;;;;;;10.70;5.18;;;;;;;25.89;nan;-24534.50;4953271;29;20269;-61
2022/08/12 06:20:15;;;;;;;9.43;5.75;;;;;;;25.82;nan;-24532.44;4953746;29;20261;-61
2022/08/12 06:22:42;;;;;;;8.00;4.93;;;;;;;26.13;nan;-24540.81;4953255;29;20602;-61
2022/08/12 06:25:08;;;;;;;7.35;4.78;;;;;;;25.89;nan;-24534.34;4953193;29;20213;-62
2022/08/12 06:27:47;;;;;;;8.05;4.47;;;;;;;26.04;nan;-24538.47;4953381;28;20178;-61
2022/08/12 06:30:18;;;;;;;6.43;4.45;;;;;;;25.85;nan;-24533.25;4952318;29;20185;-61
2022/08/12 06:32:46;;;;;;;6.78;4.40;;;;;;;26.14;nan;-24541.09;4953250;29;20330;-62
2022/08/12 06:35:12;;;;;;;6.68;4.45;;;;;;;26.07;nan;-24539.31;4953039;29;20185;-61
2022/08/12 06:37:47;;;;;;;6.85;4.18;;;;;;;26.09;nan;-24539.84;4952306;29;20190;-61
2022/08/12 06:40:13;;;;;;;7.07;4.90;;;;;;;26.36;nan;-24547.13;4952778;29;20185;-62
2022/08/12 06:42:51;;;;;;;8.10;4.60;;;;;;;26.45;nan;-24549.59;4952278;29;20282;-61
2022/08/12 06:45:22;;;;;;;7.18;5.03;;;;;;;26.33;nan;-24546.44;4949550;29;20190;-62
2022/08/12 06:47:48;;;;;;;7.88;4.80;;;;;;;26.26;nan;-24544.53;4952286;29;20249;-61
2022/08/12 06:50:15;;;;;;;9.88;5.13;;;;;;;26.53;nan;-24551.66;4952568;29;20194;-62
2022/08/12 06:52:45;;;;;;;9.90;5.63;;;;;;;26.73;nan;-24557.28;4953037;29;20217;-62
2022/08/12 06:55:19;;;;;;;10.73;5.15;;;;;;;26.70;nan;-24556.31;4953188;29;20210;-61
2022/08/12 06:58:00;;;;;;;7.88;4.93;;;;;;;26.60;nan;-24553.72;4953387;29;20176;-61
2022/08/12 07:00:32;;;;;;;7.10;4.50;;;;;;;26.82;nan;-24559.63;4953482;29;20201;-62
2022/08/12 07:03:00;;;;;;;8.68;4.43;;;;;;;26.26;nan;-24544.53;4954989;28;20174;-62
2022/08/12 07:05:26;;;;;;;8.90;4.38;;;;;;;26.73;nan;-24557.16;4956463;29;20257;-62
2022/08/12 07:07:57;;;;;;;5.47;3.75;;;;;;;26.78;nan;-24558.53;4956721;29;20181;-61
2022/08/12 07:10:26;;;;;;;8.10;4.55;;;;;;;26.80;nan;-24559.06;4956098;29;20190;-62
2022/08/12 07:12:56;;;;;;;7.65;4.20;;;;;;;26.66;nan;-24555.38;4955704;29;20205;-61
2022/08/12 07:15:24;;;;;;;6.70;4.45;;;;;;;26.68;nan;-24555.91;4955126;28;20261;-61
2022/08/12 07:17:59;;;;;;;4.75;3.47;;;;;;;26.21;nan;-24543.00;4955196;29;20255;-61
2022/08/12 07:20:29;;;;;;;6.60;4.47;;;;;;;26.63;nan;-24554.41;4954675;29;20189;-61
2022/08/12 07:22:55;;;;;;;7.25;4.63;;;;;;;26.69;nan;-24556.19;4953389;29;20174;-61
2022/08/12 07:25:35;;;;;;;6.75;4.22;;;;;;;26.86;nan;-24560.72;4956191;29;20597;-63
2022/08/12 07:28:06;;;;;;;7.32;4.50;;;;;;;27.00;nan;-24564.44;4936988;29;20226;-62
2022/08/12 07:30:36;;;;;;;7.18;4.88;;;;;;;27.09;nan;-24567.03;4953943;29;20267;-60
2022/08/12 07:33:03;;;;;;;9.45;5.05;;;;;;;27.24;nan;-24571.00;4955259;29;20695;-60
2022/08/12 07:35:31;;;;;;;7.47;4.40;;;;;;;27.25;nan;-24571.28;4955281;29;20712;-61
2022/08/12 07:37:58;;;;;;;8.18;4.85;;;;;;;26.69;nan;-24556.19;4955506;29;20210;-64
2022/08/12 07:40:25;;;;;;;6.75;4.28;;;;;;;26.86;nan;-24560.59;4954869;29;20197;-78
2022/08/12 07:42:51;;;;;;;7.68;4.63;;;;;;;27.00;nan;-24564.56;4942917;29;20228;-79
2022/08/12 07:45:19;;;;;;;7.07;4.53;;;;;;;27.24;nan;-24571.16;4959690;29;20193;-78
2022/08/12 07:47:45;;;;;;;9.52;4.97;;;;;;;27.45;nan;-24576.63;4953362;29;20672;-79
2022/08/12 07:50:14;;;;;;;6.38;4.20;;;;;;;27.34;nan;-24573.63;4943834;29;20196;-82
2022/08/12 07:52:42;;;;;;;7.10;4.90;;;;;;;27.28;nan;-24571.97;4960950;29;20649;-79
2022/08/12 07:55:09;;;;;;;6.53;4.22;;;;;;;27.87;nan;-24588.00;4962314;29;20240;-79
2022/08/12 07:57:47;;;;;;;6.05;4.25;;;;;;;28.07;nan;-24593.63;4944597;29;20178;-79
2022/08/12 08:00:13;;;;;;;6.28;4.15;;;;;;;28.10;nan;-24594.44;4959173;29;20588;-78
2022/08/12 08:02:39;;;;;;;7.63;5.03;;;;;;;28.34;nan;-24600.88;4959860;29;20190;-78
2022/08/12 08:05:05;;;;;;;8.52;4.70;;;;;;;28.23;nan;-24597.72;4961123;29;20181;-78
2022/08/12 08:07:31;;;;;;;7.45;4.65;;;;;;;27.80;nan;-24586.09;4960842;29;20241;-78
2022/08/12 08:10:01;;;;;;;7.53;4.72;;;;;;;27.19;nan;-24569.63;4945102;29;20186;-79
2022/08/12 08:15:13;;;;;;;8.02;4.85;;;;;;;26.35;nan;-24547.00;4961032;28;20240;-79
2022/08/12 08:17:39;;;;;;;5.18;3.95;;;;;;;26.31;nan;-24545.75;4941924;29;20959;-79
2022/08/12 08:20:08;;;;;;;6.40;4.35;;;;;;;26.95;nan;-24563.19;4960898;29;20186;-78
2022/08/12 08:22:37;;;;;;;7.13;4.60;;;;;;;27.12;nan;-24567.84;4974356;28;20557;-81
2022/08/12 08:25:05;;;;;;;6.10;4.28;;;;;;;27.31;nan;-24572.78;4944033;29;20608;-78
2022/08/12 08:27:47;;;;;;;6.38;4.13;;;;;;;27.42;nan;-24575.94;4959029;29;20196;-79
2022/08/12 08:30:15;;;;;;;5.47;3.72;;;;;;;27.62;nan;-24581.44;4960007;29;20202;-80
2022/08/12 08:32:40;;;;;;;6.15;4.43;;;;;;;27.88;nan;-24588.28;4940930;29;20308;-78
2022/08/12 08:35:09;;;;;;;5.65;3.92;;;;;;;27.56;nan;-24579.78;4943043;29;20648;-78
2022/08/12 08:37:35;;;;;;;6.47;3.90;;;;;;;27.82;nan;-24586.63;4945429;29;20193;-79
2022/08/12 08:42:35;;;;;;;6.05;3.90;;;;;;;28.16;nan;-24595.94;4943265;29;20205;-76
2022/08/12 08:42:46;;;;;;;5.03;3.83;;;;;;;28.43;nan;-24603.19;4956434;29;20186;-79
2022/08/12 08:45:12;;;;;;;4.85;3.78;;;;;;;28.74;nan;-24611.69;4958230;29;20268;-79
2022/08/12 08:47:45;;;;;;;6.28;3.53;;;;;;;29.11;nan;-24621.53;4940133;29;20177;-80
2022/08/12 08:50:13;;;;;;;6.15;3.70;;;;;;;29.11;nan;-24621.53;4954729;29;20236;-79
2022/08/12 08:52:40;;;;;;;4.45;3.33;;;;;;;28.79;nan;-24613.03;4939187;29;20281;-79
2022/08/12 08:55:08;;;;;;;5.47;3.65;;;;;;;28.55;nan;-24606.63;4940098;28;20185;-79
2022/08/12 08:57:34;;;;;;;5.88;3.78;;;;;;;28.35;nan;-24601.00;4941020;29;20190;-78
2022/08/12 09:00:00;;;;;;;5.05;3.55;;;;;;;28.54;nan;-24606.22;4940486;29;20259;-78
2022/08/12 09:02:26;;;;;;;4.45;3.42;;;;;;;28.71;nan;-24610.72;4971328;28;20556;-78
2022/08/12 09:04:51;;;;;;;5.72;3.67;;;;;;;28.71;nan;-24610.72;4958709;29;20182;-81
2022/08/12 09:07:17;;;;;;;5.72;3.72;;;;;;;29.08;nan;-24620.84;4941282;29;20200;-79
2022/08/12 09:09:43;;;;;;;6.28;3.40;;;;;;;29.11;nan;-24621.66;4941801;29;20744;-79
2022/08/12 09:14:53;;;;;;;4.95;3.80;;;;;;;28.58;nan;-24607.28;4957790;29;20236;-78
2022/08/12 09:17:21;;;;;;;4.90;3.72;;;;;;;28.52;nan;-24605.78;4944149;29;20181;-79
2022/08/12 09:19:46;;;;;;;4.80;3.30;;;;;;;28.29;nan;-24599.50;4959451;29;20178;-78
2022/08/12 09:22:12;;;;;;;4.75;3.22;;;;;;;28.51;nan;-24605.38;4940318;29;20263;-79
2022/08/12 09:24:38;;;;;;;5.18;3.33;;;;;;;29.10;nan;-24621.25;4958903;28;20186;-78
2022/08/12 09:27:05;;;;;;;5.60;3.95;;;;;;;29.59;nan;-24634.50;4942013;29;20256;-81
2022/08/12 09:29:32;;;;;;;4.78;3.70;;;;;;;30.14;nan;-24649.38;4942320;29;20288;-79
2022/08/12 09:31:59;;;;;;;4.00;3.20;;;;;;;30.10;nan;-24648.41;4940730;29;20661;-81
2022/08/12 09:34:28;;;;;;;5.72;3.50;;;;;;;30.56;nan;-24660.81;4956060;29;20205;-80
2022/08/12 09:36:54;;;;;;;4.55;3.33;;;;;;;30.58;nan;-24661.34;4956107;29;20193;-80
2022/08/12 09:39:20;;;;;;;4.70;3.45;;;;;;;30.79;nan;-24666.94;4956618;29;20291;-78
2022/08/12 09:45:19;;;;;;;4.10;3.17;;;;;;;31.11;nan;-24675.66;4938422;29;20208;-79
2022/08/12 09:47:15;;;;;;;4.70;3.13;;;;;;;31.66;nan;-24690.22;4958233;29;20651;-81
2022/08/12 09:49:40;;;;;;;3.67;2.95;;;;;;;31.84;nan;-24695.22;4941524;29;20181;-82
2022/08/12 09:52:06;;;;;;;4.00;3.03;;;;;;;31.91;nan;-24697.00;4957070;29;20265;-79
2022/08/12 09:54:31;;;;;;;4.80;3.42;;;;;;;31.93;nan;-24697.53;4960337;29;20213;-79
2022/08/12 09:56:57;;;;;;;4.32;3.20;;;;;;;32.13;nan;-24702.97;4961443;29;20640;-80
2022/08/12 09:59:22;;;;;;;3.28;2.63;;;;;;;31.87;nan;-24696.03;4941509;29;20182;-80
2022/08/12 10:01:48;;;;;;;4.20;2.88;;;;;;;31.75;nan;-24692.78;4959842;29;20193;-79
2022/08/12 10:04:14;;;;;;;5.82;3.30;;;;;;;31.27;nan;-24679.88;4939038;29;20185;-81
2022/08/12 10:06:41;;;;;;;4.18;2.90;;;;;;;31.33;nan;-24681.38;4939920;29;20192;-79
2022/08/12 10:09:08;;;;;;;3.92;2.90;;;;;;;31.56;nan;-24687.75;4939758;29;20677;-80
2022/08/12 10:14:17;;;;;;;3.97;3.00;;;;;;;32.01;nan;-24699.84;4956569;29;20320;-81
2022/08/12 10:16:43;;;;;;;4.20;3.00;;;;;;;32.41;nan;-24710.56;4957292;29;20963;-78
2022/08/12 10:19:09;;;;;;;4.60;2.92;;;;;;;32.65;nan;-24716.97;4958617;29;20173;-78
2022/08/12 10:21:40;;;;;;;4.25;3.08;;;;;;;32.89;nan;-24723.31;4937585;29;20192;-81
2022/08/12 10:24:11;;;;;;;3.85;2.60;;;;;;;33.17;nan;-24730.91;4956054;29;20668;-80
2022/08/12 10:29:46;;;;;;;3.88;2.67;;;;;;;32.99;nan;-24726.03;4954938;29;20201;-80
2022/08/12 10:32:18;;;;;;;3.17;2.75;;;;;;;32.85;nan;-24722.38;4959091;29;20268;-78
2022/08/12 10:34:44;;;;;;;4.47;2.80;;;;;;;32.99;nan;-24726.03;4940281;29;20195;-78
2022/08/12 10:37:09;;;;;;;3.65;2.70;;;;;;;33.17;nan;-24730.78;4940438;29;20189;-80
2022/08/12 10:39:38;;;;;;;3.70;2.80;;;;;;;33.11;nan;-24729.28;4962523;29;20185;-79
2022/08/12 10:45:08;;;;;;;4.60;2.83;;;;;;;32.12;nan;-24702.72;4961428;29;20272;-76
2022/08/12 10:47:36;;;;;;;3.67;2.85;;;;;;;32.01;nan;-24699.72;4962970;29;20187;-80
2022/08/12 10:50:04;;;;;;;3.80;2.90;;;;;;;32.50;nan;-24712.88;4960567;29;20220;-78
2022/08/12 10:52:30;;;;;;;5.25;3.15;;;;;;;32.86;nan;-24722.50;4934093;29;20300;-78
2022/08/12 10:54:57;;;;;;;3.95;2.70;;;;;;;32.76;nan;-24719.94;4941240;29;20220;-79
2022/08/12 10:57:25;;;;;;;4.38;2.80;;;;;;;32.74;nan;-24719.41;4955641;29;20649;-80
2022/08/12 10:59:53;;;;;;;5.25;2.88;;;;;;;33.06;nan;-24727.94;4944224;29;20185;-77
2022/08/12 11:02:19;;;;;;;4.43;2.90;;;;;;;33.36;nan;-24735.78;4959970;29;20177;-78
2022/08/12 11:04:44;;;;;;;4.95;2.60;;;;;;;33.55;nan;-24741.06;4945650;29;20189;-78
2022/08/12 11:07:10;;;;;;;3.80;2.90;;;;;;;33.77;nan;-24746.91;4942087;29;20182;-79
2022/08/12 11:09:36;;;;;;;3.45;2.58;;;;;;;33.18;nan;-24731.19;4959011;29;20599;-80
2022/08/12 11:12:05;;;;;;;4.95;2.97;;;;;;;33.53;nan;-24740.41;4943593;29;20186;-78
2022/08/12 11:14:41;;;;;;;4.00;2.70;;;;;;;33.47;nan;-24738.78;4941604;29;20236;-80
2022/08/12 11:17:11;;;;;;;3.88;2.70;;;;;;;33.63;nan;-24743.09;4943665;29;20189;-80
2022/08/12 11:19:38;;;;;;;6.07;2.70;;;;;;;33.56;nan;-24741.22;4959524;29;20178;-78
2022/08/12 11:22:09;;;;;;;3.75;2.67;;;;;;;32.22;nan;-24705.41;4959431;29;20181;-78
2022/08/12 11:24:35;;;;;;;6.13;2.50;;;;;;;32.19;nan;-24704.59;4957864;29;20213;-79
2022/08/12 11:27:05;;;;;;;3.45;2.63;;;;;;;32.11;nan;-24702.28;4956417;29;20235;-80
2022/08/12 11:29:31;;;;;;;3.58;2.55;;;;;;;32.14;nan;-24703.25;4958129;29;20555;-78
2022/08/12 11:31:56;;;;;;;4.22;2.67;;;;;;;31.72;nan;-24691.97;4940572;29;20188;-78
2022/08/12 11:34:22;;;;;;;4.30;2.83;;;;;;;31.68;nan;-24690.75;4946734;29;20244;-78
2022/08/12 11:36:55;;;;;;;3.80;2.78;;;;;;;31.94;nan;-24697.94;4943774;29;20185;-78
2022/08/12 11:39:21;;;;;;;3.45;2.80;;;;;;;31.59;nan;-24688.44;4961490;29;20633;-79
2022/08/12 11:41:47;;;;;;;3.92;2.70;;;;;;;31.47;nan;-24685.16;4958479;29;20189;-80
2022/08/12 11:44:13;;;;;;;2.83;2.30;;;;;;;31.40;nan;-24683.41;4960492;29;20189;-78
2022/08/12 11:46:40;;;;;;;4.53;2.50;;;;;;;31.44;nan;-24684.50;4941995;29;20189;-78
2022/08/12 11:49:06;;;;;;;2.88;2.35;;;;;;;31.56;nan;-24687.75;4943436;29;20200;-80
2022/08/12 11:51:33;;;;;;;4.13;2.72;;;;;;;31.74;nan;-24692.38;4941398;29;20216;-78
2022/08/12 11:53:59;;;;;;;3.97;2.63;;;;;;;32.04;nan;-24700.53;4974425;28;20219;-78
2022/08/12 11:56:25;;;;;;;3.45;2.70;;;;;;;31.85;nan;-24695.50;4944596;29;20256;-79
2022/08/12 11:58:51;;;;;;;3.10;2.47;;;;;;;31.95;nan;-24698.09;4962205;29;20719;-77
2022/08/12 12:01:17;;;;;;;3.85;2.90;;;;;;;32.14;nan;-24703.25;4962707;29;20193;-79
2022/08/12 12:03:42;;;;;;;3.28;2.65;;;;;;;32.19;nan;-24704.59;4963051;29;20185;-79
2022/08/12 12:06:08;;;;;;;4.47;2.60;;;;;;;32.33;nan;-24708.41;4942187;29;20675;-79
2022/08/12 12:08:34;;;;;;;5.78;2.88;;;;;;;32.34;nan;-24708.53;4944997;29;20600;-78
2022/08/12 12:10:59;;;;;;;5.07;3.05;;;;;;;32.55;nan;-24714.09;4944171;29;20697;-78
2022/08/12 12:13:26;;;;;;;4.38;2.72;;;;;;;32.28;nan;-24707.03;4942911;29;20216;-79
2022/08/12 12:15:52;;;;;;;3.20;2.50;;;;;;;31.34;nan;-24681.63;4935817;29;20240;-79
2022/08/12 12:18:30;;;;;;;4.05;2.67;;;;;;;30.63;nan;-24662.72;4947145;29;20245;-80
2022/08/12 12:21:02;;;;;;;3.70;2.90;;;;;;;30.62;nan;-24662.31;4958844;29;20668;-79
2022/08/12 12:23:28;;;;;;;5.25;3.33;;;;;;;30.82;nan;-24667.75;4943742;29;20200;-80
2022/08/12 12:25:54;;;;;;;3.47;2.35;;;;;;;30.93;nan;-24670.75;4961235;29;20216;-80
2022/08/12 12:28:20;;;;;;;2.70;2.28;;;;;;;30.45;nan;-24657.66;4944651;29;20563;-79
2022/08/12 12:30:46;;;;;;;3.42;2.35;;;;;;;30.59;nan;-24661.50;4960345;29;20224;-78
2022/08/12 12:33:12;;;;;;;3.72;2.72;;;;;;;30.88;nan;-24669.25;4972996;28;20204;-77
2022/08/12 12:35:39;;;;;;;3.42;2.38;;;;;;;31.31;nan;-24680.81;4945548;29;20197;-80
2022/08/12 12:38:09;;;;;;;3.30;2.50;;;;;;;31.32;nan;-24681.22;4947219;29;20225;-78
2022/08/12 12:40:36;;;;;;;3.45;2.40;;;;;;;31.79;nan;-24693.88;4961500;29;20240;-81
2022/08/12 12:43:02;;;;;;;3.15;2.40;;;;;;;31.96;nan;-24698.50;4961179;29;20184;-78
2022/08/12 12:45:29;;;;;;;3.50;2.60;;;;;;;32.01;nan;-24699.72;4942454;29;20571;-78
2022/08/12 12:48:03;;;;;;;3.83;2.33;;;;;;;32.12;nan;-24702.56;4941408;29;20204;-78
2022/08/12 12:50:37;;;;;;;3.30;2.28;;;;;;;32.10;nan;-24702.16;4954303;29;20180;-78
2022/08/12 12:53:04;;;;;;;3.25;2.22;;;;;;;32.21;nan;-24705.16;4951557;29;20243;-78
2022/08/12 12:55:30;;;;;;;3.75;2.45;;;;;;;32.07;nan;-24701.34;4951877;29;20232;-79
2022/08/12 12:57:57;;;;;;;3.00;2.35;;;;;;;31.92;nan;-24697.41;4941457;29;20182;-79
2022/08/12 13:00:23;;;;;;;2.80;2.15;;;;;;;32.09;nan;-24701.88;4957120;28;20189;-79
2022/08/12 13:02:51;;;;;;;2.78;2.33;;;;;;;31.94;nan;-24697.94;4957485;29;20243;-80
2022/08/12 13:05:46;;;;;;;2.72;2.33;;;;;;;31.87;nan;-24695.91;4942092;29;20556;-78
2022/08/12 13:08:30;;;;;;;3.20;2.47;;;;;;;31.92;nan;-24697.41;4927596;29;20261;-78
2022/08/12 13:11:02;;;;;;;3.22;2.47;;;;;;;32.22;nan;-24705.28;4939706;29;20600;-79
2022/08/12 13:13:31;;;;;;;3.50;2.35;;;;;;;32.70;nan;-24718.19;4938654;29;20584;-79
2022/08/12 13:16:00;;;;;;;2.70;2.20;;;;;;;32.70;nan;-24718.19;4957914;29;20221;-79
2022/08/12 13:18:32;;;;;;;2.85;2.33;;;;;;;32.50;nan;-24712.75;4956479;29;20284;-79
2022/08/12 13:20:59;;;;;;;3.63;2.35;;;;;;;32.41;nan;-24710.44;4925136;29;20208;-80
2022/08/12 13:23:25;;;;;;;2.50;2.17;;;;;;;31.89;nan;-24696.47;4955091;29;20189;-80
2022/08/12 13:25:50;;;;;;;2.78;2.22;;;;;;;31.76;nan;-24693.06;4956653;29;20198;-81
2022/08/12 13:28:23;;;;;;;3.35;2.47;;;;;;;31.57;nan;-24687.91;4936993;29;20193;-79
2022/08/12 13:30:51;;;;;;;2.88;2.20;;;;;;;31.38;nan;-24682.88;4954261;29;20173;-80